Time;durP1;ratioP1;P1;durP2;ratioP2;P2;SDS_P1;SDS_P2;PMS_P1;PMS_P2;Temp;Humidity;BMP_temperature;BMP_pressure;BME280_temperature;BME280_humidity;BME280_pressure;Samples;Min_cycle;Max_cycle;Signal;HPM_P1;HPM_P2
2022/04/02 00:02:25;;;;;;;0.30;0.30;;;20.00;54.00;;;;;;5032019;28;20029;-70
2022/04/02 00:04:51;;;;;;;0.30;0.30;;;20.00;54.10;;;;;;5032421;28;20472;-70
2022/04/02 00:07:16;;;;;;;0.82;0.45;;;20.00;54.00;;;;;;5032284;28;20026;-70
2022/04/02 00:09:43;;;;;;;0.80;0.47;;;20.00;54.00;;;;;;5017473;28;20030;-70
2022/04/02 00:12:09;;;;;;;1.17;0.30;;;20.00;54.10;;;;;;5011482;28;20026;-70
2022/04/02 00:14:34;;;;;;;0.50;0.30;;;20.00;54.10;;;;;;5011317;28;20022;-70
2022/04/02 00:17:00;;;;;;;1.77;0.57;;;20.00;54.10;;;;;;5012199;28;20026;-70
2022/04/02 00:19:26;;;;;;;0.98;0.45;;;20.00;54.10;;;;;;5012541;28;20034;-70
2022/04/02 00:21:51;;;;;;;1.33;0.30;;;20.00;54.10;;;;;;5012584;28;20022;-70
2022/04/02 00:24:17;;;;;;;1.25;0.50;;;20.00;54.20;;;;;;5013895;28;20030;-70
2022/04/02 00:26:42;;;;;;;0.98;0.40;;;20.00;54.10;;;;;;5016605;28;20045;-70
2022/04/02 00:29:11;;;;;;;1.85;0.40;;;20.00;54.10;;;;;;5015355;28;20045;-70
2022/04/02 00:31:36;;;;;;;1.02;0.40;;;20.00;54.10;;;;;;5016068;28;20018;-70
2022/04/02 00:34:02;;;;;;;1.40;0.50;;;20.00;54.10;;;;;;5016477;28;20101;-70
2022/04/02 00:36:28;;;;;;;0.30;0.30;;;20.00;54.20;;;;;;5015079;28;20049;-70
2022/04/02 00:38:54;;;;;;;1.65;0.47;;;19.90;54.10;;;;;;5015046;28;20060;-70
2022/04/02 00:41:19;;;;;;;1.45;0.30;;;20.00;54.20;;;;;;5016188;28;20026;-70
2022/04/02 00:43:59;;;;;;;1.20;0.45;;;20.00;54.20;;;;;;5016166;28;20050;-70
2022/04/02 00:46:25;;;;;;;0.38;0.30;;;20.00;54.20;;;;;;5015819;28;20072;-70
2022/04/02 00:48:50;;;;;;;0.75;0.50;;;20.00;54.20;;;;;;5015975;28;20034;-70
2022/04/02 00:51:16;;;;;;;0.38;0.30;;;20.00;54.20;;;;;;5016041;28;20025;-69
2022/04/02 00:53:47;;;;;;;1.85;0.40;;;19.90;54.20;;;;;;5014833;28;20025;-70
2022/04/02 00:56:13;;;;;;;0.80;0.40;;;20.00;54.20;;;;;;5015902;28;20518;-70
2022/04/02 00:58:39;;;;;;;1.85;0.50;;;19.90;54.20;;;;;;5015182;28;20029;-70
2022/04/02 01:01:06;;;;;;;3.80;0.50;;;19.90;54.20;;;;;;5035134;28;20057;-71
2022/04/02 01:03:32;;;;;;;0.95;0.47;;;20.00;54.30;;;;;;5034213;28;20487;-70
2022/04/02 01:05:58;;;;;;;0.63;0.60;;;20.00;54.30;;;;;;5034463;28;20026;-70
2022/04/02 01:08:23;;;;;;;0.90;0.40;;;20.00;54.30;;;;;;5031100;28;20057;-70
2022/04/02 01:10:49;;;;;;;1.20;0.50;;;19.90;54.30;;;;;;5015684;28;20034;-71
2022/04/02 01:13:16;;;;;;;0.70;0.50;;;19.90;54.20;;;;;;5015678;28;20022;-70
2022/04/02 01:15:42;;;;;;;0.50;0.40;;;20.00;54.30;;;;;;5014087;28;20041;-70
2022/04/02 01:18:07;;;;;;;1.65;0.57;;;19.90;54.30;;;;;;5014462;28;20121;-70
2022/04/02 01:20:34;;;;;;;2.22;0.57;;;20.00;54.30;;;;;;5015539;28;20449;-70
2022/04/02 01:23:00;;;;;;;1.63;0.47;;;20.00;54.30;;;;;;5015406;28;20068;-70
2022/04/02 01:25:31;;;;;;;0.55;0.40;;;19.90;54.30;;;;;;5014149;28;20046;-70
2022/04/02 01:28:00;;;;;;;1.57;0.47;;;20.00;54.30;;;;;;5013926;28;20399;-70
2022/04/02 01:30:26;;;;;;;1.17;0.47;;;19.90;54.30;;;;;;5013852;28;20075;-70
2022/04/02 01:32:52;;;;;;;1.23;0.57;;;19.90;54.30;;;;;;5014046;28;20509;-70
2022/04/02 01:35:20;;;;;;;0.60;0.30;;;19.90;54.30;;;;;;5012960;28;20030;-70
2022/04/02 01:37:45;;;;;;;1.05;0.40;;;19.90;54.30;;;;;;5013946;28;20022;-70
2022/04/02 01:40:11;;;;;;;1.40;0.40;;;19.90;54.30;;;;;;5015027;28;20510;-70
2022/04/02 01:42:37;;;;;;;1.50;0.40;;;19.90;54.30;;;;;;5015030;28;20030;-70
2022/04/02 01:45:03;;;;;;;2.50;0.52;;;19.90;54.30;;;;;;5014727;28;20054;-70
2022/04/02 01:47:29;;;;;;;0.65;0.38;;;19.90;54.30;;;;;;5013467;28;20041;-70
2022/04/02 01:49:54;;;;;;;0.70;0.38;;;19.90;54.30;;;;;;5013745;28;20022;-70
2022/04/02 01:52:20;;;;;;;1.10;0.43;;;19.90;54.30;;;;;;5014799;28;20022;-70
2022/04/02 01:54:49;;;;;;;0.38;0.38;;;19.90;54.30;;;;;;5013642;28;20023;-70
2022/04/02 01:57:15;;;;;;;0.57;0.28;;;19.90;54.30;;;;;;5013648;28;20054;-70
2022/04/02 01:59:44;;;;;;;0.50;0.50;;;19.90;54.30;;;;;;5023771;28;20017;-70
2022/04/02 02:02:13;;;;;;;0.50;0.30;;;20.00;54.40;;;;;;5033259;28;20039;-70
2022/04/02 02:04:39;;;;;;;1.13;0.50;;;19.90;54.30;;;;;;5033150;28;20487;-70
2022/04/02 02:07:06;;;;;;;1.85;0.50;;;19.90;54.30;;;;;;5034236;28;20028;-70
2022/04/02 02:09:33;;;;;;;0.40;0.40;;;19.90;54.30;;;;;;5021857;28;20014;-70
2022/04/02 02:11:59;;;;;;;2.20;0.50;;;19.90;54.30;;;;;;5013126;28;20025;-70
2022/04/02 02:14:24;;;;;;;1.58;0.35;;;19.90;54.30;;;;;;5013246;28;20026;-70
2022/04/02 02:16:50;;;;;;;2.35;0.65;;;19.90;54.30;;;;;;5014308;28;20022;-70
2022/04/02 02:19:16;;;;;;;0.80;0.40;;;19.90;54.30;;;;;;5014625;28;20523;-70
2022/04/02 02:21:41;;;;;;;0.47;0.30;;;19.90;54.30;;;;;;5014209;28;20062;-70
2022/04/02 02:24:08;;;;;;;0.63;0.30;;;19.90;54.30;;;;;;5014433;28;20113;-70
2022/04/02 02:26:34;;;;;;;0.45;0.30;;;19.90;54.30;;;;;;5012727;28;20033;-70
2022/04/02 02:29:00;;;;;;;2.05;0.40;;;19.90;54.40;;;;;;5012906;28;20380;-70
2022/04/02 02:31:26;;;;;;;1.40;0.38;;;19.90;54.30;;;;;;5014298;28;20025;-70
2022/04/02 02:36:35;;;;;;;0.75;0.30;;;19.90;54.30;;;;;;5013152;28;20033;-71
2022/04/02 02:39:01;;;;;;;1.48;0.50;;;19.90;54.40;;;;;;5012717;28;20022;-71
2022/04/02 02:41:27;;;;;;;1.20;0.43;;;19.90;54.40;;;;;;5013742;28;20030;-70
2022/04/02 02:43:52;;;;;;;0.38;0.38;;;19.90;54.40;;;;;;5013678;28;20121;-70
2022/04/02 02:46:18;;;;;;;0.63;0.47;;;19.90;54.40;;;;;;5012465;28;20037;-70
2022/04/02 02:48:45;;;;;;;1.40;0.57;;;19.90;54.40;;;;;;5012355;28;20026;-70
2022/04/02 02:51:10;;;;;;;1.48;0.43;;;19.90;54.40;;;;;;5012703;28;20483;-70
2022/04/02 02:53:36;;;;;;;1.25;0.40;;;19.90;54.40;;;;;;5012218;28;20029;-70
2022/04/02 02:56:02;;;;;;;1.30;0.50;;;19.90;54.40;;;;;;5013573;28;20033;-70
2022/04/02 02:58:27;;;;;;;0.57;0.38;;;19.90;54.50;;;;;;5013708;28;20029;-70
2022/04/02 03:00:53;;;;;;;0.30;0.30;;;19.90;54.50;;;;;;5031182;28;20022;-70
2022/04/02 03:03:19;;;;;;;0.32;0.30;;;19.90;54.40;;;;;;5033399;28;20503;-69
2022/04/02 03:05:46;;;;;;;1.83;0.40;;;19.90;54.40;;;;;;5033222;28;20038;-69
2022/04/02 03:08:12;;;;;;;0.40;0.40;;;19.90;54.50;;;;;;5030596;28;20105;-69
2022/04/02 03:10:38;;;;;;;2.15;0.38;;;19.90;54.40;;;;;;5011954;28;20104;-70
2022/04/02 03:13:06;;;;;;;0.60;0.30;;;19.90;54.50;;;;;;5013388;28;20080;-70
2022/04/02 03:15:32;;;;;;;0.40;0.40;;;19.80;54.50;;;;;;4995956;28;20452;-69
2022/04/02 03:18:02;;;;;;;0.30;0.30;;;19.80;55.40;;;;;;5012277;28;20539;-69
2022/04/02 03:20:28;;;;;;;1.33;0.40;;;19.90;54.50;;;;;;5012417;28;20030;-70
2022/04/02 03:22:54;;;;;;;0.65;0.30;;;19.90;54.50;;;;;;5013117;28;20022;-70
2022/04/02 03:25:21;;;;;;;0.47;0.30;;;19.80;54.40;;;;;;5013156;28;20026;-69
2022/04/02 03:27:46;;;;;;;1.50;0.35;;;19.80;54.40;;;;;;5011782;28;20017;-70
2022/04/02 03:30:14;;;;;;;0.95;0.47;;;19.80;54.40;;;;;;5011808;28;20026;-70
2022/04/02 03:32:40;;;;;;;0.40;0.40;;;19.80;54.40;;;;;;5011981;28;20056;-70
2022/04/02 03:35:06;;;;;;;0.30;0.30;;;19.80;54.40;;;;;;5011976;28;20073;-70
2022/04/02 03:37:36;;;;;;;0.30;0.30;;;19.80;54.50;;;;;;5011836;28;20053;-70
2022/04/02 03:40:02;;;;;;;0.45;0.30;;;19.80;54.50;;;;;;5011747;28;20030;-70
2022/04/02 03:42:28;;;;;;;1.00;0.28;;;19.80;54.50;;;;;;5011803;28;20022;-70
2022/04/02 03:44:54;;;;;;;0.50;0.40;;;19.90;54.60;;;;;;5012580;28;20413;-70
2022/04/02 03:47:22;;;;;;;0.80;0.40;;;19.80;54.50;;;;;;5013059;28;20026;-70
2022/04/02 03:49:48;;;;;;;0.25;0.25;;;19.80;54.50;;;;;;5012673;28;20050;-70
2022/04/02 03:52:15;;;;;;;1.65;0.50;;;19.80;54.50;;;;;;5011655;28;20022;-70
2022/04/02 03:54:40;;;;;;;1.83;0.40;;;19.80;54.50;;;;;;5012581;28;20014;-70
2022/04/02 03:57:06;;;;;;;2.28;0.50;;;19.80;54.50;;;;;;5012811;28;20018;-70
2022/04/02 03:59:32;;;;;;;0.77;0.50;;;19.80;54.50;;;;;;5018546;28;20032;-70
2022/04/02 04:01:58;;;;;;;0.25;0.25;;;19.80;54.50;;;;;;5031326;28;20025;-70
2022/04/02 04:04:25;;;;;;;1.75;0.43;;;19.80;54.50;;;;;;5031095;28;20030;-70
2022/04/02 04:06:51;;;;;;;0.75;0.40;;;19.80;54.60;;;;;;5032257;28;20490;-70
2022/04/02 04:09:17;;;;;;;0.30;0.30;;;19.80;54.50;;;;;;5020664;28;20029;-70
2022/04/02 04:11:43;;;;;;;0.30;0.30;;;19.80;54.60;;;;;;5011432;28;20029;-70
2022/04/02 04:14:09;;;;;;;0.30;0.30;;;19.80;54.60;;;;;;5012591;28;20026;-70
2022/04/02 04:16:35;;;;;;;0.80;0.25;;;19.80;54.60;;;;;;5011486;28;20022;-70
2022/04/02 04:19:01;;;;;;;0.45;0.38;;;19.80;54.60;;;;;;5012473;28;20029;-70
2022/04/02 04:21:26;;;;;;;1.45;0.30;;;19.80;54.60;;;;;;5012631;28;20060;-70
2022/04/02 04:23:52;;;;;;;0.82;0.30;;;19.80;54.60;;;;;;5012324;28;20025;-70
2022/04/02 04:26:18;;;;;;;0.45;0.45;;;19.80;54.70;;;;;;5012428;28;20361;-70
2022/04/02 04:28:43;;;;;;;0.88;0.30;;;19.80;54.60;;;;;;5011041;28;20037;-70
2022/04/02 04:31:09;;;;;;;0.60;0.35;;;19.80;54.60;;;;;;5011440;28;20018;-70
2022/04/02 04:33:35;;;;;;;0.70;0.32;;;19.80;54.70;;;;;;5011286;28;20026;-70
2022/04/02 04:36:01;;;;;;;0.50;0.50;;;19.80;54.60;;;;;;5011286;28;20025;-70
2022/04/02 04:38:27;;;;;;;0.57;0.40;;;19.80;54.70;;;;;;5011997;28;20034;-70
2022/04/02 04:40:52;;;;;;;1.17;0.40;;;19.80;54.70;;;;;;5010967;28;20467;-70
2022/04/02 04:43:18;;;;;;;0.17;0.17;;;19.80;54.70;;;;;;5011024;28;20049;-70
2022/04/02 04:45:44;;;;;;;0.68;0.50;;;19.80;54.70;;;;;;5012314;28;20030;-70
2022/04/02 04:48:09;;;;;;;0.40;0.40;;;19.80;54.70;;;;;;5012172;28;20036;-71
2022/04/02 04:50:35;;;;;;;0.45;0.38;;;19.80;54.70;;;;;;5012390;28;20022;-71
2022/04/02 04:53:02;;;;;;;0.40;0.32;;;19.80;54.70;;;;;;5010670;28;20058;-71
2022/04/02 04:55:28;;;;;;;0.95;0.30;;;19.80;54.70;;;;;;5012212;28;20564;-71
2022/04/02 04:57:54;;;;;;;2.28;0.40;;;19.80;54.70;;;;;;5012357;28;20108;-71
2022/04/02 05:00:20;;;;;;;0.50;0.20;;;19.80;54.70;;;;;;5026252;28;20063;-70
2022/04/02 05:02:47;;;;;;;0.32;0.30;;;19.80;54.70;;;;;;5031939;28;20022;-70
2022/04/02 05:05:13;;;;;;;1.05;0.40;;;19.80;54.70;;;;;;5030701;28;20075;-70
2022/04/02 05:07:42;;;;;;;1.05;0.50;;;19.80;54.70;;;;;;5030417;28;20097;-70
2022/04/02 05:10:08;;;;;;;0.77;0.20;;;19.80;54.70;;;;;;5015641;28;20029;-70
2022/04/02 05:12:38;;;;;;;1.05;0.50;;;19.80;54.80;;;;;;5015686;28;20026;-70
2022/04/02 05:15:10;;;;;;;0.43;0.30;;;19.80;54.80;;;;;;5014345;28;20071;-70
2022/04/02 05:17:36;;;;;;;0.67;0.43;;;19.80;54.80;;;;;;5015446;28;20444;-70
2022/04/02 05:20:03;;;;;;;0.90;0.32;;;19.80;54.80;;;;;;5014255;28;20030;-70
2022/04/02 05:22:28;;;;;;;2.67;0.43;;;19.80;54.80;;;;;;5015157;28;20480;-70
2022/04/02 05:24:54;;;;;;;0.95;0.40;;;19.80;54.80;;;;;;5015294;28;20037;-70
2022/04/02 05:27:20;;;;;;;0.40;0.40;;;19.80;54.80;;;;;;5014010;28;20025;-70
2022/04/02 05:29:46;;;;;;;0.25;0.20;;;19.80;54.80;;;;;;5013829;28;20116;-71
2022/04/02 05:32:12;;;;;;;0.50;0.43;;;19.80;54.80;;;;;;5014196;28;20014;-70
2022/04/02 05:34:37;;;;;;;2.95;0.35;;;19.80;54.80;;;;;;5015220;28;20030;-70
2022/04/02 05:37:03;;;;;;;0.63;0.30;;;19.80;54.80;;;;;;5013807;28;20037;-70
2022/04/02 05:39:29;;;;;;;0.73;0.40;;;19.80;54.80;;;;;;5028273;28;20029;-70
2022/04/02 05:41:57;;;;;;;0.88;0.40;;;19.80;54.80;;;;;;5032938;28;20556;-71
2022/04/02 05:44:23;;;;;;;0.45;0.30;;;19.80;54.80;;;;;;5032821;28;20065;-71
2022/04/02 05:46:49;;;;;;;0.35;0.30;;;19.80;54.80;;;;;;5033243;28;20021;-71
2022/04/02 05:49:15;;;;;;;0.38;0.35;;;19.80;54.80;;;;;;5033242;28;20091;-70
2022/04/02 05:51:40;;;;;;;0.40;0.30;;;19.80;54.80;;;;;;5034226;28;20064;-71
2022/04/02 05:54:06;;;;;;;1.52;0.40;;;19.70;54.80;;;;;;5033780;28;20021;-71
2022/04/02 05:56:33;;;;;;;0.45;0.25;;;19.80;54.80;;;;;;5034173;28;20029;-71
2022/04/02 05:58:59;;;;;;;0.55;0.32;;;19.80;54.90;;;;;;5033670;28;20033;-71
2022/04/02 06:01:24;;;;;;;0.22;0.20;;;19.80;54.80;;;;;;5033820;28;20022;-71
2022/04/02 06:03:50;;;;;;;0.38;0.30;;;19.80;55.80;;;;;;5033805;28;20025;-71
2022/04/02 06:06:15;;;;;;;0.47;0.40;;;19.80;54.90;;;;;;5033629;28;20025;-70
2022/04/02 06:08:41;;;;;;;0.75;0.20;;;19.80;54.80;;;;;;5033971;28;20022;-71
2022/04/02 06:11:07;;;;;;;0.45;0.38;;;19.80;54.90;;;;;;5033081;28;20032;-71
2022/04/02 06:13:33;;;;;;;0.30;0.30;;;19.80;54.80;;;;;;5033817;28;20033;-71
2022/04/02 06:15:58;;;;;;;0.38;0.30;;;19.80;54.90;;;;;;5033035;28;20033;-70
2022/04/02 06:18:24;;;;;;;0.38;0.30;;;19.70;54.90;;;;;;5034067;28;20035;-70
2022/04/02 06:20:50;;;;;;;2.28;0.30;;;19.80;54.90;;;;;;5033925;28;20502;-71
2022/04/02 06:23:16;;;;;;;0.50;0.40;;;19.80;54.90;;;;;;5033526;28;20400;-71
2022/04/02 06:25:42;;;;;;;0.68;0.40;;;19.70;54.90;;;;;;5032927;28;20032;-70
2022/04/02 06:28:08;;;;;;;0.25;0.25;;;19.80;54.90;;;;;;5034071;28;20021;-70
2022/04/02 06:30:33;;;;;;;0.57;0.35;;;19.80;54.90;;;;;;5032743;28;20109;-70
2022/04/02 06:33:03;;;;;;;0.45;0.32;;;19.80;54.90;;;;;;5032460;28;20092;-70
2022/04/02 06:35:28;;;;;;;0.57;0.28;;;19.80;54.90;;;;;;5032823;28;20108;-70
2022/04/02 06:37:54;;;;;;;1.60;0.32;;;19.80;54.90;;;;;;5032658;28;20108;-70
2022/04/02 06:40:20;;;;;;;1.05;0.30;;;19.80;54.90;;;;;;5032469;28;20048;-70
2022/04/02 06:42:46;;;;;;;1.55;0.30;;;19.80;55.00;;;;;;5032336;28;20029;-70
2022/04/02 06:45:12;;;;;;;0.60;0.30;;;19.80;54.90;;;;;;5032553;28;20083;-71
2022/04/02 06:47:37;;;;;;;0.57;0.30;;;19.80;54.90;;;;;;5032243;28;20030;-71
2022/04/02 06:50:08;;;;;;;0.20;0.20;;;19.80;54.90;;;;;;5033593;28;20021;-71
2022/04/02 06:52:33;;;;;;;0.68;0.50;;;19.80;55.00;;;;;;5032432;28;20031;-70
2022/04/02 06:54:59;;;;;;;1.80;0.55;;;19.80;54.90;;;;;;5033352;28;20096;-70
2022/04/02 06:57:25;;;;;;;0.45;0.40;;;19.80;54.90;;;;;;5032370;28;20033;-70
2022/04/02 06:59:51;;;;;;;1.33;0.30;;;19.80;54.90;;;;;;5032041;28;20022;-70
2022/04/02 07:02:16;;;;;;;1.95;0.50;;;19.70;54.90;;;;;;5032002;28;20021;-70
2022/04/02 07:04:43;;;;;;;1.08;0.40;;;19.80;55.00;;;;;;5032172;28;20014;-70
2022/04/02 07:07:13;;;;;;;1.38;0.30;;;19.80;54.90;;;;;;5032125;28;20079;-70
2022/04/02 07:09:42;;;;;;;0.57;0.38;;;19.80;54.90;;;;;;5020102;28;20472;-70
2022/04/02 07:12:09;;;;;;;0.50;0.30;;;19.70;54.90;;;;;;5012187;28;20477;-70
2022/04/02 07:14:34;;;;;;;0.63;0.60;;;19.70;54.90;;;;;;5013557;28;20025;-70
2022/04/02 07:17:00;;;;;;;0.10;0.10;;;19.80;54.90;;;;;;5013112;28;20026;-70
2022/04/02 07:19:26;;;;;;;0.40;0.28;;;19.70;54.90;;;;;;5013325;28;20030;-70
2022/04/02 07:21:52;;;;;;;0.40;0.30;;;19.80;55.00;;;;;;5012161;28;20022;-71
2022/04/02 07:24:18;;;;;;;1.55;0.30;;;19.80;55.00;;;;;;5013133;28;20479;-70
2022/04/02 07:26:45;;;;;;;1.08;0.50;;;19.80;54.90;;;;;;5012082;28;20052;-71
2022/04/02 07:29:13;;;;;;;0.85;0.60;;;19.80;54.90;;;;;;5013071;28;20034;-71
2022/04/02 07:31:40;;;;;;;1.83;0.43;;;19.80;54.90;;;;;;5027905;28;20024;-70
2022/04/02 07:34:06;;;;;;;0.75;0.40;;;19.80;55.00;;;;;;5030692;28;20022;-70
2022/04/02 07:37:04;;;;;;;1.10;0.50;;;19.80;55.00;;;;;;5033562;28;20368;-71
2022/04/02 07:39:48;;;;;;;0.73;0.30;;;19.80;54.90;;;;;;5032887;28;20029;-71
2022/04/02 07:42:22;;;;;;;1.08;0.38;;;19.80;55.00;;;;;;5032530;28;20622;-70
2022/04/02 07:45:04;;;;;;;1.20;0.30;;;19.70;55.00;;;;;;5031709;28;20087;-70
2022/04/02 07:47:35;;;;;;;0.50;0.30;;;19.80;54.90;;;;;;5031882;28;20029;-70
2022/04/02 07:50:13;;;;;;;0.43;0.43;;;19.70;55.10;;;;;;5031634;28;20034;-71
2022/04/02 07:52:50;;;;;;;0.47;0.47;;;19.80;55.10;;;;;;5031650;28;20017;-70
2022/04/02 07:55:16;;;;;;;0.93;0.40;;;19.80;55.00;;;;;;5033021;28;20029;-70
2022/04/02 07:57:43;;;;;;;0.77;0.30;;;19.70;55.10;;;;;;5031924;28;20025;-71
2022/04/02 08:00:11;;;;;;;1.80;0.28;;;19.70;55.10;;;;;;5031171;28;20072;-70
2022/04/02 08:02:42;;;;;;;0.32;0.28;;;19.70;55.10;;;;;;5015405;28;20022;-70
2022/04/02 08:05:12;;;;;;;0.40;0.30;;;19.80;55.10;;;;;;5015855;28;20048;-70
2022/04/02 08:07:43;;;;;;;0.30;0.17;;;19.70;55.10;;;;;;5031304;28;20048;-70
2022/04/02 08:10:12;;;;;;;0.82;0.50;;;19.70;55.00;;;;;;5013864;28;20026;-70
2022/04/02 08:12:40;;;;;;;0.52;0.35;;;19.70;55.00;;;;;;5012651;28;20477;-70
2022/04/02 08:15:09;;;;;;;0.20;0.20;;;19.70;55.00;;;;;;5011251;28;20022;-70
2022/04/02 08:17:39;;;;;;;0.73;0.35;;;19.80;55.10;;;;;;5012977;28;20057;-70
2022/04/02 08:20:05;;;;;;;0.63;0.50;;;19.70;55.00;;;;;;5011790;28;20030;-71
2022/04/02 08:22:31;;;;;;;1.15;0.80;;;19.80;55.10;;;;;;5013105;28;20018;-71
2022/04/02 08:24:58;;;;;;;0.40;0.38;;;19.80;55.10;;;;;;5011866;28;20041;-70
2022/04/02 08:28:01;;;;;;;0.47;0.45;;;19.80;55.10;;;;;;5011670;28;20412;-70
2022/04/02 08:31:04;;;;;;;2.33;0.70;;;19.80;55.00;;;;;;5011418;28;20496;-71
2022/04/02 08:33:37;;;;;;;1.00;0.45;;;19.80;55.00;;;;;;4991280;28;20046;-70
2022/04/02 08:36:16;;;;;;;1.05;0.40;;;19.70;55.20;;;;;;4974975;28;20045;-71
2022/04/02 08:38:48;;;;;;;1.33;0.50;;;19.70;55.10;;;;;;4975239;28;20034;-71
2022/04/02 08:41:22;;;;;;;0.75;0.40;;;19.70;55.80;;;;;;4991066;28;20038;-71
2022/04/02 08:44:06;;;;;;;0.47;0.45;;;19.80;55.20;;;;;;4990488;28;20046;-70
2022/04/02 08:47:08;;;;;;;0.40;0.30;;;19.80;55.10;;;;;;4994533;28;20034;-70
2022/04/02 08:49:36;;;;;;;0.73;0.30;;;19.70;55.10;;;;;;4956035;29;20051;-70
2022/04/02 08:52:13;;;;;;;0.50;0.40;;;19.70;55.30;;;;;;4971898;28;20417;-70
2022/04/02 08:54:59;;;;;;;1.48;0.40;;;19.70;55.30;;;;;;4955984;29;20058;-72
2022/04/02 08:57:32;;;;;;;0.65;0.60;;;19.70;55.20;;;;;;4956088;29;20038;-71
2022/04/02 09:00:14;;;;;;;0.77;0.77;;;19.70;54.00;;;;;;4955720;29;20035;-70
2022/04/02 09:03:03;;;;;;;1.30;0.70;;;19.60;53.30;;;;;;4953758;29;20145;-72
2022/04/02 09:05:51;;;;;;;1.65;0.70;;;19.40;53.10;;;;;;4954232;29;20027;-74
2022/04/02 09:08:54;;;;;;;1.15;0.77;;;19.30;53.70;;;;;;4958589;28;20134;-72
2022/04/02 09:11:20;;;;;;;;;;;19.20;53.20;;;;;;4974836;28;20524;-73
2022/04/02 09:14:22;;;;;;;1.95;0.80;;;19.10;53.10;;;;;;4974332;28;19914;-74
2022/04/02 09:17:03;;;;;;;1.83;0.80;;;19.00;53.40;;;;;;4960789;28;20041;-73
2022/04/02 09:19:51;;;;;;;0.63;0.60;;;19.00;53.50;;;;;;4958353;28;20035;-69
2022/04/02 09:22:38;;;;;;;0.70;0.70;;;18.90;53.20;;;;;;4974251;28;20035;-71
2022/04/02 09:25:35;;;;;;;0.70;0.70;;;18.90;53.30;;;;;;4942251;28;20560;-73
2022/04/02 09:28:00;;;;;;;1.67;0.70;;;18.80;53.20;;;;;;5015173;28;20026;-73
2022/04/02 09:30:32;;;;;;;0.60;0.60;;;18.70;53.50;;;;;;5015329;28;20029;-73
2022/04/02 09:33:19;;;;;;;1.33;0.80;;;18.70;53.40;;;;;;5015110;28;20077;-70
2022/04/02 09:36:24;;;;;;;0.90;0.80;;;18.70;53.10;;;;;;5014339;28;20034;-71
2022/04/02 09:39:07;;;;;;;1.25;0.75;;;18.70;53.00;;;;;;5015089;28;20037;-72
2022/04/02 09:41:56;;;;;;;2.05;0.60;;;18.60;53.20;;;;;;5015004;28;20026;-71
2022/04/02 09:44:47;;;;;;;1.02;0.90;;;18.60;53.00;;;;;;5011587;28;20046;-71
2022/04/02 09:47:21;;;;;;;2.05;0.90;;;18.50;53.00;;;;;;5013864;28;20088;-71
2022/04/02 09:49:46;;;;;;;0.77;0.77;;;18.50;53.30;;;;;;5013651;28;20396;-72
2022/04/02 09:52:17;;;;;;;1.67;0.88;;;18.40;53.30;;;;;;5014751;28;20101;-73
2022/04/02 09:54:51;;;;;;;1.63;0.75;;;18.40;53.30;;;;;;5013766;28;20018;-73
2022/04/02 09:57:43;;;;;;;1.83;0.93;;;18.40;53.20;;;;;;5012511;28;20534;-74
2022/04/02 10:00:09;;;;;;;1.00;0.82;;;18.40;53.00;;;;;;5027320;28;20029;-74
2022/04/02 10:02:46;;;;;;;0.82;0.63;;;18.30;53.30;;;;;;5033553;28;20034;-73
2022/04/02 10:05:15;;;;;;;0.70;0.70;;;18.30;53.20;;;;;;5034564;28;20052;-74
2022/04/02 10:08:02;;;;;;;0.90;0.90;;;18.30;53.30;;;;;;5033158;28;20025;-74
2022/04/02 10:10:28;;;;;;;1.38;1.15;;;18.30;53.30;;;;;;5014292;28;20018;-73
2022/04/02 10:12:54;;;;;;;1.30;1.20;;;18.30;53.30;;;;;;5013475;28;20021;-74
2022/04/02 10:15:25;;;;;;;1.20;1.00;;;18.20;53.30;;;;;;5013311;28;20022;-74
2022/04/02 10:17:53;;;;;;;1.00;0.82;;;18.20;53.30;;;;;;5013485;28;20099;-74
2022/04/02 10:20:21;;;;;;;1.50;0.85;;;18.20;53.30;;;;;;5014172;28;20057;-73
2022/04/02 10:22:47;;;;;;;1.30;1.00;;;18.20;53.40;;;;;;5014370;28;20018;-73
2022/04/02 10:25:14;;;;;;;1.00;0.90;;;18.20;54.40;;;;;;5012945;28;20044;-73
2022/04/02 10:27:43;;;;;;;0.80;0.80;;;18.20;53.40;;;;;;5026143;28;20010;-70
2022/04/02 10:30:12;;;;;;;1.58;1.00;;;18.20;53.20;;;;;;5048538;28;20021;-71
2022/04/02 10:35:41;;;;;;;1.95;1.10;;;18.20;53.20;;;;;;5050006;28;20071;-71
2022/04/02 10:38:12;;;;;;;1.83;0.98;;;18.20;53.50;;;;;;5047743;28;20025;-69
2022/04/02 10:40:54;;;;;;;1.10;0.90;;;18.20;53.60;;;;;;5063621;28;20064;-69
2022/04/02 10:43:26;;;;;;;1.95;0.80;;;18.20;53.50;;;;;;5041268;28;20048;-69
2022/04/02 10:45:52;;;;;;;1.55;1.15;;;18.10;53.60;;;;;;5035644;28;20025;-69
2022/04/02 10:48:43;;;;;;;2.17;0.90;;;18.10;53.60;;;;;;5047790;28;20408;-69
2022/04/02 10:51:08;;;;;;;1.70;1.02;;;18.10;53.60;;;;;;5051000;28;20041;-71
2022/04/02 10:53:35;;;;;;;0.80;0.80;;;18.10;53.70;;;;;;5065531;28;20033;-70
2022/04/02 10:56:02;;;;;;;2.58;1.20;;;18.10;53.80;;;;;;5065022;28;20071;-70
2022/04/02 10:58:30;;;;;;;1.23;0.88;;;18.10;53.70;;;;;;5032242;28;20025;-70
2022/04/02 11:00:56;;;;;;;1.73;0.85;;;18.10;53.70;;;;;;5048304;28;20030;-70
2022/04/02 11:03:29;;;;;;;4.13;0.80;;;18.10;53.70;;;;;;5032223;28;20025;-71
2022/04/02 11:05:54;;;;;;;1.00;0.93;;;18.10;53.70;;;;;;5032077;28;20037;-70
2022/04/02 11:08:22;;;;;;;1.52;0.70;;;18.10;53.80;;;;;;5031634;28;20025;-72
2022/04/02 11:10:48;;;;;;;0.90;0.80;;;18.10;53.80;;;;;;5033287;28;20024;-71
2022/04/02 11:13:26;;;;;;;0.80;0.77;;;18.10;53.90;;;;;;5033463;28;20021;-71
2022/04/02 11:15:53;;;;;;;2.13;0.80;;;18.10;53.80;;;;;;5031907;28;20025;-69
2022/04/02 11:18:19;;;;;;;1.15;1.05;;;18.10;53.90;;;;;;5031865;28;20028;-69
2022/04/02 11:20:45;;;;;;;0.80;0.80;;;18.10;53.90;;;;;;5032016;28;20035;-69
2022/04/02 11:23:19;;;;;;;1.02;0.85;;;18.10;54.00;;;;;;5031654;28;20079;-69
2022/04/02 11:25:52;;;;;;;1.25;0.70;;;18.10;54.00;;;;;;5031796;28;20442;-69
2022/04/02 11:28:22;;;;;;;1.50;0.90;;;18.10;54.00;;;;;;5031632;28;20399;-70
2022/04/02 11:30:50;;;;;;;0.70;0.70;;;18.10;54.00;;;;;;5033030;28;20051;-70
2022/04/02 11:33:21;;;;;;;2.30;0.88;;;18.10;54.10;;;;;;5032829;28;20395;-72
2022/04/02 11:35:59;;;;;;;1.20;1.02;;;18.10;54.10;;;;;;5031588;28;20026;-70
2022/04/02 11:38:32;;;;;;;1.73;1.02;;;18.10;54.20;;;;;;5064352;28;20247;-70
2022/04/02 11:41:15;;;;;;;1.30;1.10;;;18.10;54.40;;;;;;5031672;28;20120;-73
2022/04/02 11:43:42;;;;;;;1.00;0.90;;;18.20;54.50;;;;;;5031304;28;20037;-70
2022/04/02 11:46:10;;;;;;;1.55;1.20;;;18.10;54.40;;;;;;5032599;28;20032;-71
2022/04/02 11:48:39;;;;;;;1.70;1.30;;;18.20;54.50;;;;;;5031271;28;20017;-70
2022/04/02 11:51:29;;;;;;;1.77;1.00;;;18.10;54.40;;;;;;5031439;28;20068;-70
2022/04/02 11:54:03;;;;;;;1.25;1.10;;;18.20;54.60;;;;;;5029650;28;20112;-70
2022/04/02 11:56:30;;;;;;;1.38;1.15;;;18.20;54.60;;;;;;5032806;28;20056;-70
2022/04/02 11:58:58;;;;;;;1.50;1.40;;;18.10;54.60;;;;;;5032087;28;20043;-70
2022/04/02 12:01:24;;;;;;;1.25;1.10;;;18.10;54.60;;;;;;5046709;28;20026;-70
2022/04/02 12:04:16;;;;;;;1.95;1.27;;;18.10;54.70;;;;;;5038728;28;20017;-70
2022/04/02 12:06:43;;;;;;;1.77;1.20;;;18.20;55.00;;;;;;5048106;28;20017;-70
2022/04/02 12:09:22;;;;;;;4.47;1.38;;;18.10;54.80;;;;;;5036628;28;20025;-70
2022/04/02 12:12:03;;;;;;;2.80;1.40;;;18.20;55.10;;;;;;5040301;28;20116;-70
2022/04/02 12:14:31;;;;;;;2.53;1.40;;;18.20;55.00;;;;;;5062887;28;20210;-74
2022/04/02 12:17:10;;;;;;;2.55;1.48;;;18.20;55.00;;;;;;5042148;28;20123;-70
2022/04/02 12:19:47;;;;;;;1.38;1.27;;;18.20;55.10;;;;;;5041279;28;20029;-73
2022/04/02 12:22:35;;;;;;;7.97;1.77;;;18.20;55.20;;;;;;5044871;28;20028;-73
2022/04/02 12:25:13;;;;;;;6.63;1.73;;;18.20;55.40;;;;;;5066835;28;20488;-74
2022/04/02 12:27:39;;;;;;;10.45;2.40;;;18.20;55.30;;;;;;5065325;28;20053;-71
2022/04/02 12:30:09;;;;;;;13.32;2.88;;;18.20;55.50;;;;;;5034924;28;20049;-71
2022/04/02 12:32:39;;;;;;;17.80;3.50;;;18.30;55.70;;;;;;5051407;28;20447;-70
2022/04/02 12:35:13;;;;;;;17.95;4.40;;;18.30;55.80;;;;;;5036191;28;20094;-70
2022/04/02 12:37:46;;;;;;;21.15;3.88;;;18.30;56.00;;;;;;5050874;28;20026;-69
2022/04/02 12:40:19;;;;;;;17.33;3.50;;;18.30;56.20;;;;;;5066340;28;20013;-69
2022/04/02 12:42:45;;;;;;;;;;;18.30;56.10;;;;;;5036037;28;20022;-69
2022/04/02 12:45:18;;;;;;;16.13;3.53;;;18.20;56.80;;;;;;5067941;28;20360;-69
2022/04/02 12:48:03;;;;;;;17.92;3.00;;;18.20;56.50;;;;;;5035552;28;20507;-69
2022/04/02 12:50:57;;;;;;;16.52;3.38;;;18.30;56.60;;;;;;5067621;28;20079;-69
2022/04/02 12:53:58;;;;;;;18.83;3.65;;;18.20;56.40;;;;;;5053587;28;20030;-69
2022/04/02 12:56:25;;;;;;;12.65;3.25;;;18.30;56.80;;;;;;5030567;28;20477;-69
2022/04/02 12:58:52;;;;;;;14.45;3.40;;;18.20;56.50;;;;;;5066379;28;20021;-69
2022/04/02 13:01:25;;;;;;;10.82;2.83;;;18.20;56.50;;;;;;5034710;28;20049;-69
2022/04/02 13:03:54;;;;;;;10.15;3.00;;;18.20;56.50;;;;;;5035741;28;20026;-69
2022/04/02 13:06:21;;;;;;;7.78;2.53;;;18.20;56.50;;;;;;5035416;28;20029;-69
2022/04/02 13:08:59;;;;;;;11.38;3.28;;;18.20;56.50;;;;;;5028092;28;20022;-69